Reklama

Seznam meteostanic a jejich METAR

Vyhledat místa podle abecedy:
A B C D E F G H I J K L M N O P Q R S T U V W X Y Z

Filtrovat:

ID stanice:
a/nebo
Název místa (fulltext):
 
Místo (ID)Naposledy načteno 
Milešovka (Milesovka) 18.11.2018 19:00 UTC Zobrazit data
Místo: Milešovka
Teplota: -3 °C (pocitová: -16.4 °C)
Vítr: 11 m/s z(e) 30°
Počasí: skoro zataženo
Dohlednost: 50 km
Zákl. oblačnosti: 6/8 2100 m
Vlhkost: 59%
Mošnov (Ostrava/Mo) 19.11.2018 00:00 UTC Zobrazit data
Místo: Mošnov
Teplota: 0 °C (pocitová: -9.2 °C)
Vítr: 5 m/s z(e) 20°
Počasí: zataženo
Dohlednost: 6 km
Zákl. oblačnosti: 8/8 690 m
Vlhkost: 80%
Macau (VMMC) 19.11.2018 00:00 UTC Zobrazit METAR
VMMC 190000Z 35014KT 9999 FEW015 SCT025 21/18 Q1018 NOSIG
Madeira (LPMA) 19.11.2018 00:00 UTC Zobrazit METAR
LPMA 190000Z 30007KT 260V010 9999 -SHRA SCT015 15/10 Q1011
Madrid (LETO) 19.11.2018 00:00 UTC Zobrazit METAR
LETO 190000Z 03005KT 9999 -RA BKN045 09/09 Q1004 TEMPO RA
Majuro Atoll (PKMA) Zatím nenačteno  
Malabo (FGSL) 19.11.2018 00:00 UTC Zobrazit METAR
FGSL 190000Z 23004KT 9999 FEW010 SCT060 25/24 Q1011 NOSIG
Malaga (LEMG) 19.11.2018 00:00 UTC Zobrazit METAR
LEMG 190000Z VRB01KT 9999 FEW020 SCT030 BKN070 14/13 Q1002 NOSIG
Male (VRMM) 19.11.2018 00:00 UTC Zobrazit METAR
VRMM 190000Z 13003KT 9999 FEW018 27/24 Q1010 NOSIG
Malmo (ESMS) 18.11.2018 23:50 UTC Zobrazit METAR
ESMS 182350Z 04013KT 9999 BKN023 BKN030 04/01 Q1032
Malta (LMML) 18.11.2018 23:45 UTC Zobrazit METAR
LMML 182345Z 24006KT 9999 FEW030 17/12 Q1011 NOSIG
Managua (MNMG) 19.11.2018 00:00 UTC Zobrazit METAR
MNMG 190000Z 07012KT 9999 FEW022 29/23 Q1009 A2981 NOSIG
Manchester (EGCC) 18.11.2018 23:50 UTC Zobrazit METAR
EGCC 182350Z AUTO 02010KT 9999 SCT024 06/02 Q1029
Manila (RPLL) 19.11.2018 00:00 UTC Zobrazit METAR
RPLL 190000Z 08004KT 070V120 9999 FEW023 BKN300 28/20 Q1014 NOSIG RMK A2994
Manzini (FDMS) 18.11.2018 09:00 UTC Zobrazit METAR
FDMS 180900Z VRB02KT 9999 FEW025 BKN035 21/16 Q1022 NOSIG
Maputo (FQMA) 19.11.2018 00:00 UTC Zobrazit METAR
FQMA 190000Z 18006KT 9999 BKN025 20/18 Q1020 NOSIG
Maribor (LJMB) 19.11.2018 00:00 UTC Zobrazit METAR
LJMB 190000Z AUTO 36004KT 6000 -RASN OVC010/// 01/M00 Q1016
Marrakech (GMMX) 19.11.2018 00:00 UTC Zobrazit METAR
GMMX 190000Z 22007KT 9999 SCT026 11/09 Q1009 NOSIG
Maseru (FXMM) 16.11.2018 05:00 UTC Zobrazit METAR
FXMM 160500Z 27005KT CAVOK 23/09 Q1024 NOSIG
Mauritius (FIMP) 18.11.2018 23:00 UTC Zobrazit METAR
FIMP 182300Z 09004KT 9999 SCT016 23/20 Q1016
Melilla (GEML) 19.11.2018 00:00 UTC Zobrazit METAR
GEML 190000Z AUTO 21008KT 170V260 CAVOK 17/06 Q1003
Mexico City (MMMX) 18.11.2018 23:50 UTC Zobrazit METAR
MMMX 182350Z 13009KT 8SM SCT080 BKN220 19/00 A3029 NOSIG RMK SLP118 57003 900 8/032 HZY
Midway Atoll, Sand Island (PMDY) 18.11.2018 23:56 UTC Zobrazit METAR
PMDY 182356Z AUTO 15008KT 10SM CLR 26/22 A3013 RMK AO2 SLP202 T02560217 10261 20233 58005
Milan (LIMC) 18.11.2018 23:50 UTC Zobrazit METAR
LIMC 182350Z 01003KT CAVOK M00/M02 Q1013 NOSIG
Minsk (UMMM) 11.07.2016 14:00 UTC Zobrazit METAR
UMMM 111400Z ///// //// BKN040 BKN200 28/16 Q1009 NOSIG RMK QFE738
Mitilini (LGMT) 18.11.2018 08:50 UTC Zobrazit METAR
LGMT 180850Z 07006KT 040V150 9999 FEW018 SCT025 14/10 Q1019
Mogadishu (HCMM) 18.11.2018 14:00 UTC Zobrazit METAR
HCMM 181400Z 09012KT 9999 SCT020 29/24 Q1008
Monrovia (GLRB) 16.11.2018 13:00 UTC Zobrazit METAR
GLRB 161300Z 20010KT 9999 BKN020 32/25 Q1012 NOSIG
Montevideo (SUMU) 19.11.2018 00:00 UTC Zobrazit METAR
SUMU 190000Z 00000KT CAVOK 16/07 Q1017 NOSIG
Montpellier/ Mediterranee (LFMT) 19.11.2018 00:00 UTC Zobrazit METAR
LFMT 190000Z AUTO 03007KT 9000 NSC 04/03 Q1012 NOSIG
Moscow (UUEE) Zatím nenačteno  
Mostar (LQMO) 19.11.2018 00:00 UTC Zobrazit METAR
LQMO 190000Z VRB02KT CAVOK 03/M01 Q1009
Mount Pleasant (EGYP) 18.11.2018 23:50 UTC Zobrazit METAR
EGYP 182350Z 26012KT 9999 FEW018 05/03 Q0995 BLU
Munich (EDDM) 18.11.2018 23:50 UTC Zobrazit METAR
EDDM 182350Z 04006KT 6000 -SN SCT005 BKN012 01/00 Q1016 TEMPO 4500 BKN005
Muscat (OOMS) 18.11.2018 23:50 UTC Zobrazit METAR
OOMS 182350Z 32006KT CAVOK 27/20 Q1012 NOSIG
Reklama

Počasí na Váš email

Emaily jsou bez reklamy a bez spamu



Odhlásit newsletter

Reklama


Lunární kalendář

  • 23.11.
  • 30.11.
  • 07.12.
  • 15.12.



Reklama


Reklama
Povinné ručení
Reklama



Reklama